Time;durP1;ratioP1;P1;durP2;ratioP2;P2;SDS_P1;SDS_P2;PMS_P1;PMS_P2;Temp;Humidity;BMP_temperature;BMP_pressure;BME280_temperature;BME280_humidity;BME280_pressure;Samples;Min_cycle;Max_cycle;Signal;HPM_P1;HPM_P2
2024/04/21 00:02:35;;;;;;;7.93;5.25;;;2.50;1.00;;;;;;5145972;27;20014;-78
2024/04/21 00:05:22;;;;;;;10.73;5.50;;;2.50;1.00;;;;;;5139761;27;20021;-82
2024/04/21 00:08:11;;;;;;;6.32;5.20;;;2.40;99.90;;;;;;5129377;27;20699;-82
2024/04/21 00:11:01;;;;;;;8.20;4.50;;;2.40;99.90;;;;;;5120952;27;20016;-79
2024/04/21 00:14:31;;;;;;;;;;;;;;;;;;;;;
2024/04/21 00:17:24;;;;;;;5.05;4.55;;;2.40;99.90;;;;;;5144694;27;20030;-79
2024/04/21 00:20:21;;;;;;;4.22;3.50;;;2.50;99.90;;;;;;5121185;27;20161;-81
2024/04/21 00:23:15;;;;;;;5.00;3.42;;;2.50;99.90;;;;;;5124577;27;20017;-82
2024/04/21 00:26:16;;;;;;;5.97;3.25;;;2.50;99.90;;;;;;5137601;27;20005;-78
2024/04/21 00:29:09;;;;;;;4.30;2.80;;;2.60;99.90;;;;;;5139232;27;20017;-78
2024/04/21 00:31:58;;;;;;;2.75;2.35;;;2.60;99.90;;;;;;5145637;27;20019;-78
2024/04/21 00:35:04;;;;;;;2.92;2.40;;;2.60;99.90;;;;;;5145947;27;20001;-80
2024/04/21 00:37:51;;;;;;;3.38;2.45;;;2.60;37.20;;;;;;5144939;27;20064;-78
2024/04/21 00:40:39;;;;;;;5.65;2.55;;;2.60;4.00;;;;;;5130366;27;20019;-80
2024/04/21 00:43:29;;;;;;;3.00;2.30;;;2.60;8.90;;;;;;5124220;27;20032;-81
2024/04/21 00:46:30;;;;;;;4.00;2.85;;;2.50;1.00;;;;;;5122238;27;20459;-80
2024/04/21 00:49:23;;;;;;;4.32;2.67;;;2.50;1.00;;;;;;5125023;27;20024;-81
2024/04/21 00:52:14;;;;;;;5.60;3.17;;;2.50;1.00;;;;;;5129864;27;20020;-82
2024/04/21 00:55:01;;;;;;;4.85;3.25;;;2.50;1.00;;;;;;5130882;27;20016;-80
2024/04/21 00:57:50;;;;;;;7.80;2.97;;;2.50;1.00;;;;;;5150938;27;20046;-81
2024/04/21 01:00:49;;;;;;;3.60;2.78;;;2.50;1.00;;;;;;5135854;27;20024;-79
2024/04/21 01:03:36;;;;;;;4.82;3.17;;;2.50;1.00;;;;;;5140421;27;20020;-80
2024/04/21 01:06:31;;;;;;;3.78;2.90;;;2.50;1.00;;;;;;5126032;27;20056;-84
2024/04/21 01:09:23;;;;;;;5.80;2.90;;;2.50;1.00;;;;;;5114542;27;20013;-81
2024/04/21 01:12:16;;;;;;;7.32;3.00;;;2.50;1.00;;;;;;5144198;27;20447;-84
2024/04/21 01:15:20;;;;;;;4.10;2.50;;;2.50;1.00;;;;;;5146736;27;20013;-80
2024/04/21 01:18:14;;;;;;;4.43;3.05;;;2.50;1.00;;;;;;5135964;27;20060;-78
2024/04/21 01:21:08;;;;;;;5.00;2.70;;;2.50;1.00;;;;;;5130780;27;20116;-79
2024/04/21 01:24:07;;;;;;;4.85;3.03;;;2.50;99.90;;;;;;5144215;27;20005;-81
2024/04/21 01:27:21;;;;;;;6.40;2.60;;;2.60;99.90;;;;;;5134598;27;20013;-80
2024/04/21 01:30:09;;;;;;;4.05;2.60;;;2.60;99.90;;;;;;5137066;27;20022;-80
2024/04/21 01:33:05;;;;;;;7.03;3.03;;;2.60;99.90;;;;;;5124720;27;20025;-81
2024/04/21 01:35:59;;;;;;;6.38;2.38;;;2.60;99.90;;;;;;5123411;27;20020;-83
2024/04/21 01:38:47;;;;;;;2.47;2.15;;;2.60;5.50;;;;;;5139615;27;20096;-81
2024/04/21 01:41:44;;;;;;;3.38;2.30;;;2.60;1.00;;;;;;5130645;27;20778;-81
2024/04/21 01:44:59;;;;;;;3.65;2.40;;;2.60;99.90;;;;;;5123658;27;20104;-82
2024/04/21 01:47:58;;;;;;;3.15;2.45;;;2.70;99.90;;;;;;5113804;27;20019;-81
2024/04/21 01:51:04;;;;;;;4.80;2.20;;;2.70;99.90;;;;;;5134210;27;20033;-81
2024/04/21 01:53:51;;;;;;;3.13;2.22;;;2.70;43.70;;;;;;5125191;27;20021;-81
2024/04/21 01:56:49;;;;;;;4.80;2.55;;;2.70;1.00;;;;;;5126313;27;20013;-79
2024/04/21 01:59:37;;;;;;;3.35;2.55;;;2.80;1.00;;;;;;5126871;27;20005;-80
2024/04/21 02:02:32;;;;;;;6.03;3.00;;;2.80;99.90;;;;;;5128933;27;20092;-81
2024/04/21 02:05:20;;;;;;;9.25;3.08;;;2.90;99.90;;;;;;5131472;27;20089;-81
2024/04/21 02:08:13;;;;;;;9.82;3.25;;;2.90;1.00;;;;;;5131475;27;20067;-81
2024/04/21 02:11:12;;;;;;;6.45;3.08;;;3.00;1.00;;;;;;5124616;27;20006;-80
2024/04/21 02:14:06;;;;;;;5.70;3.10;;;2.90;99.90;;;;;;5129774;27;20518;-80
2024/04/21 02:17:02;;;;;;;7.32;2.97;;;2.90;99.90;;;;;;5149415;27;20541;-83
2024/04/21 02:20:13;;;;;;;5.53;4.05;;;2.90;99.90;;;;;;5126177;27;20445;-79
2024/04/21 02:23:00;;;;;;;5.70;3.33;;;2.90;99.90;;;;;;5120394;27;20010;-81
2024/04/21 02:26:20;;;;;;;5.90;3.20;;;2.90;99.90;;;;;;5120809;27;20032;-80
2024/04/21 02:29:08;;;;;;;3.58;3.28;;;2.90;99.90;;;;;;5127699;27;20016;-81
2024/04/21 02:32:09;;;;;;;4.53;3.50;;;2.80;99.90;;;;;;5128207;27;20013;-79
2024/04/21 02:35:04;;;;;;;5.28;3.55;;;2.80;99.90;;;;;;5128228;27;20624;-82
2024/04/21 02:38:03;;;;;;;6.97;4.45;;;2.80;99.90;;;;;;5125497;27;20021;-80
2024/04/21 02:40:50;;;;;;;4.15;3.80;;;2.70;99.90;;;;;;5128224;27;20021;-80
2024/04/21 02:43:38;;;;;;;4.30;3.90;;;2.70;99.90;;;;;;5129893;27;20001;-78
2024/04/21 02:46:27;;;;;;;7.68;4.75;;;2.60;99.90;;;;;;5125841;27;20009;-80
2024/04/21 02:49:18;;;;;;;5.70;4.78;;;2.60;1.00;;;;;;5123206;27;21021;-80
2024/04/21 02:52:06;;;;;;;9.35;5.40;;;2.60;1.00;;;;;;5132573;27;20013;-75
2024/04/21 02:55:00;;;;;;;8.98;5.28;;;2.60;1.00;;;;;;5132945;27;20013;-77
2024/04/21 02:57:49;;;;;;;10.27;5.70;;;2.60;1.00;;;;;;5144199;27;20337;-79
2024/04/21 03:00:50;;;;;;;8.95;5.78;;;2.60;1.00;;;;;;5121882;27;20009;-83
2024/04/21 03:03:45;;;;;;;9.25;6.53;;;2.60;1.00;;;;;;5143837;27;20017;-79
2024/04/21 03:06:47;;;;;;;11.45;6.22;;;2.70;1.00;;;;;;5141691;27;20061;-79
2024/04/21 03:09:35;;;;;;;11.60;6.75;;;2.70;1.00;;;;;;5120603;27;20019;-80
2024/04/21 03:12:33;;;;;;;9.82;6.50;;;2.70;1.00;;;;;;5129684;27;20017;-80
2024/04/21 03:15:23;;;;;;;11.05;6.90;;;2.70;1.00;;;;;;5140236;27;20025;-81
2024/04/21 03:18:29;;;;;;;12.80;7.35;;;2.70;1.00;;;;;;5133924;27;20481;-81
2024/04/21 03:21:16;;;;;;;14.98;8.00;;;2.80;1.00;;;;;;5132970;27;20012;-82
2024/04/21 03:24:11;;;;;;;15.02;8.52;;;2.80;1.00;;;;;;5125154;27;20043;-80
2024/04/21 03:27:00;;;;;;;13.43;8.52;;;2.90;1.00;;;;;;5125372;27;20041;-79
2024/04/21 03:29:57;;;;;;;17.63;8.05;;;2.90;1.00;;;;;;5142493;27;20009;-82
2024/04/21 03:32:52;;;;;;;18.45;9.07;;;2.90;57.50;;;;;;5126830;27;20052;-82
2024/04/21 03:36:04;;;;;;;17.38;10.15;;;2.90;99.90;;;;;;5115168;27;20066;-81
2024/04/21 03:38:58;;;;;;;15.60;10.93;;;2.80;99.90;;;;;;5137774;27;20042;-82
2024/04/21 03:41:48;;;;;;;16.13;10.70;;;2.60;29.30;;;;;;5128993;27;20013;-82
2024/04/21 03:44:43;;;;;;;8.23;7.28;;;2.50;99.90;;;;;;5126855;27;20009;-79
2024/04/21 03:47:33;;;;;;;11.68;8.77;;;2.40;99.90;;;;;;5112564;27;20066;-80
2024/04/21 03:50:21;;;;;;;12.55;9.10;;;2.20;99.90;;;;;;5123349;27;20018;-79
2024/04/21 03:53:25;;;;;;;20.77;10.80;;;2.10;1.00;;;;;;5149681;27;20025;-81
2024/04/21 03:56:12;;;;;;;14.25;11.20;;;1.90;1.00;;;;;;5126769;27;20009;-77
2024/04/21 03:59:09;;;;;;;16.92;11.52;;;1.80;92.30;;;;;;5124399;27;20013;-79
2024/04/21 04:02:11;;;;;;;16.85;12.30;;;1.70;99.90;;;;;;5118565;27;20009;-79
2024/04/21 04:04:59;;;;;;;21.35;14.00;;;1.70;99.90;;;;;;5120916;27;20047;-80
2024/04/21 04:07:47;;;;;;;28.83;18.23;;;1.70;1.00;;;;;;5124923;27;20035;-79
2024/04/21 04:10:44;;;;;;;19.98;13.68;;;1.80;99.90;;;;;;5114727;27;20013;-82
2024/04/21 04:13:32;;;;;;;23.92;14.05;;;1.70;99.90;;;;;;5124166;27;20005;-79
2024/04/21 04:16:19;;;;;;;25.10;13.88;;;1.70;99.90;;;;;;5124576;27;20097;-78
2024/04/21 04:19:13;;;;;;;22.65;13.93;;;1.70;1.00;;;;;;5125332;27;20490;-79
2024/04/21 04:22:00;;;;;;;22.73;14.15;;;1.70;1.00;;;;;;5125257;27;20069;-79
2024/04/21 04:24:49;;;;;;;18.50;12.90;;;1.70;1.00;;;;;;5122223;27;20013;-80
2024/04/21 04:27:40;;;;;;;20.20;12.98;;;1.70;1.00;;;;;;5140242;27;20025;-79
2024/04/21 04:30:30;;;;;;;17.70;12.20;;;1.70;1.00;;;;;;5132606;27;20009;-79
2024/04/21 04:33:18;;;;;;;20.15;11.45;;;1.70;1.00;;;;;;5121503;27;20053;-80
2024/04/21 04:36:12;;;;;;;14.45;10.88;;;1.70;1.00;;;;;;5134000;27;20494;-79
2024/04/21 04:39:02;;;;;;;20.52;12.07;;;1.60;1.00;;;;;;5125514;27;20037;-81
2024/04/21 04:42:25;;;;;;;17.77;12.25;;;1.50;1.00;;;;;;5137845;27;20359;-80
2024/04/21 04:45:13;;;;;;;19.70;11.27;;;1.30;1.00;;;;;;5144792;27;20025;-82
2024/04/21 04:48:04;;;;;;;13.68;9.25;;;1.20;1.00;;;;;;5146609;27;20014;-80
2024/04/21 04:50:55;;;;;;;11.57;8.40;;;1.10;1.00;;;;;;5127097;27;20013;-80
2024/04/21 04:53:42;;;;;;;15.90;7.65;;;1.10;1.00;;;;;;5124256;27;20062;-82
2024/04/21 04:56:33;;;;;;;9.38;7.03;;;1.10;24.10;;;;;;5134097;27;20038;-80
2024/04/21 04:59:27;;;;;;;13.48;7.47;;;1.10;32.30;;;;;;5122713;27;20020;-77
2024/04/21 05:02:15;;;;;;;13.07;6.85;;;1.10;47.20;;;;;;5122665;27;20017;-82
2024/04/21 05:05:11;;;;;;;14.65;7.35;;;1.20;62.40;;;;;;5125714;27;20009;-80
2024/04/21 05:07:59;;;;;;;17.80;7.22;;;1.20;80.80;;;;;;5124839;27;20024;-78
2024/04/21 05:11:03;;;;;;;14.73;7.63;;;1.10;82.60;;;;;;5138085;27;20021;-79
2024/04/21 05:13:57;;;;;;;15.43;6.60;;;1.20;95.20;;;;;;5121633;27;20053;-78
2024/04/21 05:16:45;;;;;;;19.45;6.60;;;1.10;99.90;;;;;;5127521;27;20356;-79
2024/04/21 05:19:32;;;;;;;12.40;5.68;;;1.10;97.10;;;;;;5121998;27;20020;-77
2024/04/21 05:22:20;;;;;;;14.52;7.05;;;1.10;99.90;;;;;;5124220;27;20091;-79
2024/04/21 05:25:07;;;;;;;10.48;6.53;;;1.00;99.90;;;;;;5130540;27;20515;-79
2024/04/21 05:27:54;;;;;;;11.95;6.63;;;1.00;99.90;;;;;;5135099;27;20021;-79
2024/04/21 05:30:42;;;;;;;13.60;6.75;;;1.00;99.90;;;;;;5146544;27;20013;-80
2024/04/21 05:33:30;;;;;;;17.13;6.68;;;0.90;99.90;;;;;;5117128;27;20005;-77
2024/04/21 05:36:17;;;;;;;19.33;5.95;;;0.80;99.90;;;;;;5146050;27;20023;-81
2024/04/21 05:39:11;;;;;;;18.13;6.22;;;0.80;99.90;;;;;;5131391;27;20020;-79
2024/04/21 05:42:01;;;;;;;21.52;7.28;;;0.80;99.90;;;;;;5128967;27;20021;-79
2024/04/21 05:45:08;;;;;;;19.42;6.38;;;0.90;99.90;;;;;;5143222;27;20023;-78
2024/04/21 05:48:01;;;;;;;16.77;6.55;;;1.00;99.90;;;;;;5111160;27;20415;-80
2024/04/21 05:51:01;;;;;;;15.68;6.57;;;1.00;99.90;;;;;;5123556;27;20093;-78
2024/04/21 05:53:48;;;;;;;14.93;6.72;;;1.00;99.90;;;;;;5144752;27;20025;-79
2024/04/21 05:56:39;;;;;;;10.98;6.28;;;1.00;99.90;;;;;;5126666;27;20089;-79
2024/04/21 05:59:26;;;;;;;20.40;7.68;;;1.00;99.90;;;;;;5129775;27;20077;-79
2024/04/21 06:02:16;;;;;;;22.35;8.43;;;1.10;99.90;;;;;;5124918;27;20009;-80
2024/04/21 06:05:09;;;;;;;15.18;7.43;;;1.20;99.90;;;;;;5130653;27;20009;-83
2024/04/21 06:08:06;;;;;;;19.02;8.73;;;1.30;99.90;;;;;;5152628;27;20093;-80
2024/04/21 06:10:54;;;;;;;21.30;7.65;;;1.40;99.90;;;;;;5134682;27;20009;-78
2024/04/21 06:13:53;;;;;;;25.33;8.38;;;1.50;99.90;;;;;;5147581;27;19997;-83
2024/04/21 06:16:51;;;;;;;17.23;7.22;;;1.50;99.90;;;;;;5127721;27;20012;-79
2024/04/21 06:20:05;;;;;;;14.63;5.38;;;1.60;99.90;;;;;;5124984;27;20013;-79
2024/04/21 06:22:56;;;;;;;19.70;6.28;;;1.70;99.90;;;;;;5127816;27;20020;-80
2024/04/21 06:25:57;;;;;;;14.95;5.95;;;1.70;99.90;;;;;;5136134;27;20024;-80
2024/04/21 06:28:47;;;;;;;13.05;5.63;;;1.70;99.90;;;;;;5129810;27;20124;-78
2024/04/21 06:31:35;;;;;;;15.35;5.75;;;1.80;99.90;;;;;;5128955;27;20009;-79
2024/04/21 06:34:22;;;;;;;24.33;6.18;;;1.90;99.90;;;;;;5132343;27;20013;-80
2024/04/21 06:37:18;;;;;;;18.90;6.15;;;2.00;99.90;;;;;;5126404;27;20086;-79
2024/04/21 06:40:09;;;;;;;16.67;6.07;;;2.10;99.90;;;;;;5146362;27;20013;-76
2024/04/21 06:43:23;;;;;;;19.90;5.47;;;2.20;99.90;;;;;;5137196;27;20031;-78
2024/04/21 06:46:22;;;;;;;17.70;5.75;;;2.20;99.90;;;;;;5132062;27;20009;-80
2024/04/21 06:49:13;;;;;;;21.90;6.18;;;2.20;94.10;;;;;;5127741;27;20002;-79
2024/04/21 06:52:06;;;;;;;16.92;6.18;;;2.20;48.40;;;;;;5121710;27;20037;-79
2024/04/21 06:54:59;;;;;;;14.27;5.57;;;2.20;1.00;;;;;;5137180;27;20675;-80
2024/04/21 06:58:09;;;;;;;17.33;6.10;;;2.30;2.80;;;;;;5138368;27;20378;-76
2024/04/21 07:00:56;;;;;;;19.80;6.45;;;2.30;1.00;;;;;;5145315;27;20009;-78
2024/04/21 07:03:52;;;;;;;18.27;5.97;;;2.30;1.00;;;;;;5129278;27;20394;-81
2024/04/21 07:06:45;;;;;;;18.38;6.47;;;2.40;1.00;;;;;;5106935;27;20005;-76
2024/04/21 07:09:39;;;;;;;15.80;6.28;;;2.40;1.00;;;;;;5139293;27;20009;-82
2024/04/21 07:12:37;;;;;;;18.83;6.53;;;2.40;1.00;;;;;;5126835;27;20150;-80
2024/04/21 07:15:38;;;;;;;18.52;6.22;;;2.40;1.00;;;;;;5134506;27;20021;-78
2024/04/21 07:21:49;;;;;;;23.58;6.38;;;2.60;1.00;;;;;;5138477;27;20013;-80
2024/04/21 07:24:36;;;;;;;18.27;5.95;;;2.60;99.90;;;;;;5126653;27;20009;-80
2024/04/21 07:27:25;;;;;;;20.13;5.63;;;2.60;99.90;;;;;;5156724;27;20033;-82
2024/04/21 07:30:24;;;;;;;20.13;5.50;;;2.60;99.90;;;;;;5141597;27;20016;-80
2024/04/21 07:33:25;;;;;;;15.43;5.50;;;2.60;99.90;;;;;;5125577;27;20008;-81
2024/04/21 07:36:16;;;;;;;15.90;4.72;;;2.70;99.90;;;;;;5138529;27;20021;-82
2024/04/21 07:39:29;;;;;;;13.13;4.97;;;2.70;1.00;;;;;;5127345;27;20018;-82
2024/04/21 07:42:26;;;;;;;19.90;5.22;;;2.70;99.90;;;;;;5146586;27;20093;-76
2024/04/21 07:45:24;;;;;;;13.93;5.60;;;2.80;1.00;;;;;;5138676;27;20009;-81
2024/04/21 07:48:29;;;;;;;13.85;4.90;;;3.00;99.90;;;;;;5140962;27;20024;-82
2024/04/21 07:51:25;;;;;;;11.65;4.72;;;3.00;1.00;;;;;;5131201;27;20025;-80
2024/04/21 07:54:23;;;;;;;13.70;4.53;;;3.10;1.00;;;;;;5122699;27;20021;-81
2024/04/21 07:57:27;;;;;;;19.25;4.70;;;3.30;99.90;;;;;;5160887;27;20034;-82
2024/04/21 08:00:40;;;;;;;12.48;4.13;;;3.50;66.10;;;;;;5128405;27;20023;-79
2024/04/21 08:03:36;;;;;;;14.35;4.63;;;3.60;99.90;;;;;;5126591;27;20595;-80
2024/04/21 08:06:26;;;;;;;16.77;4.57;;;3.70;1.00;;;;;;5126912;27;20025;-78
2024/04/21 08:09:17;;;;;;;14.85;4.03;;;3.90;99.90;;;;;;5142775;27;20013;-79
2024/04/21 08:12:24;;;;;;;14.63;4.45;;;3.90;79.50;;;;;;5142981;27;20024;-81
2024/04/21 08:15:13;;;;;;;15.85;4.28;;;3.80;1.00;;;;;;5124091;27;20021;-80
2024/04/21 08:18:09;;;;;;;15.50;3.80;;;3.70;99.90;;;;;;5162898;27;20483;-80
2024/04/21 08:21:10;;;;;;;11.45;3.70;;;3.50;1.00;;;;;;5135300;27;20009;-81
2024/04/21 08:24:03;;;;;;;15.18;5.20;;;3.40;99.90;;;;;;5124575;27;20016;-81
2024/04/21 08:26:54;;;;;;;16.23;4.07;;;3.30;99.90;;;;;;5125612;27;20016;-81
2024/04/21 08:29:47;;;;;;;12.93;4.00;;;3.30;99.90;;;;;;5133742;27;20409;-81
2024/04/21 08:32:35;;;;;;;15.15;4.43;;;3.30;99.90;;;;;;5124970;27;20021;-82
2024/04/21 08:35:34;;;;;;;14.98;4.57;;;3.40;76.20;;;;;;5126948;27;20017;-81
2024/04/21 08:38:39;;;;;;;17.45;4.78;;;3.60;95.30;;;;;;5125761;27;20013;-81
2024/04/21 08:42:11;;;;;;;15.23;3.97;;;3.80;92.40;;;;;;5087052;27;20023;-82
2024/04/21 08:45:27;;;;;;;12.60;3.50;;;4.00;1.00;;;;;;5131741;27;20009;-83
2024/04/21 08:48:44;;;;;;;13.38;2.90;;;4.40;99.90;;;;;;5118364;27;20115;-80
2024/04/21 08:52:49;;;;;;;15.23;2.95;;;4.50;99.90;;;;;;5027824;28;20027;-82
2024/04/21 09:08:32;;;;;;;12.07;2.45;;;6.40;99.90;;;;;;5069198;28;20062;-79
2024/04/21 09:11:11;;;;;;;8.95;2.58;;;6.70;99.90;;;;;;5070298;28;20011;-82
2024/04/21 09:14:16;;;;;;;13.60;2.30;;;6.80;1.00;;;;;;5074832;27;20010;-81
2024/04/21 09:17:21;;;;;;;9.80;2.67;;;7.70;1.00;;;;;;5076647;27;20091;-82
2024/04/21 09:20:38;;;;;;;8.00;2.40;;;8.70;99.90;;;;;;5065227;28;20018;-83
2024/04/21 09:23:29;;;;;;;11.25;2.58;;;8.70;99.90;;;;;;5065552;28;20026;-83
2024/04/21 09:26:27;;;;;;;9.35;2.00;;;8.60;25.30;;;;;;5120889;27;20013;-81
2024/04/21 09:29:15;;;;;;;9.00;2.92;;;8.60;1.00;;;;;;5150213;27;20021;-82
2024/04/21 09:32:15;;;;;;;13.85;4.28;;;8.50;1.00;;;;;;5131956;27;20024;-79
2024/04/21 09:35:06;;;;;;;8.93;2.63;;;8.90;1.00;;;;;;5133932;27;20005;-79
2024/04/21 09:38:03;;;;;;;8.27;1.80;;;9.20;99.90;;;;;;5132280;27;20017;-81
2024/04/21 09:41:09;;;;;;;13.40;3.83;;;8.90;99.90;;;;;;5125475;27;20017;-84
2024/04/21 09:44:27;;;;;;;11.75;2.22;;;8.90;99.90;;;;;;5130496;27;20101;-82
2024/04/21 09:47:25;;;;;;;9.95;2.25;;;9.00;99.90;;;;;;5125190;27;20013;-83
2024/04/21 09:50:21;;;;;;;11.98;2.08;;;8.90;99.90;;;;;;5123786;27;20021;-82
2024/04/21 09:53:24;;;;;;;5.05;1.98;;;9.30;99.90;;;;;;5122328;27;20030;-83
2024/04/21 09:56:37;;;;;;;10.27;1.83;;;9.30;99.90;;;;;;5127491;27;20009;-84
2024/04/21 10:03:09;;;;;;;4.07;1.42;;;10.90;99.90;;;;;;5149027;27;20015;-81
2024/04/21 10:06:11;;;;;;;6.07;1.52;;;12.30;99.90;;;;;;5160987;27;20088;-81
2024/04/21 10:09:07;;;;;;;4.65;1.20;;;12.30;99.90;;;;;;5149983;27;20064;-82
2024/04/21 10:12:08;;;;;;;5.28;1.50;;;11.70;95.70;;;;;;5161056;27;20013;-83
2024/04/21 10:15:15;;;;;;;6.13;1.42;;;11.50;60.60;;;;;;5148770;27;20016;-85
2024/04/21 10:18:29;;;;;;;7.88;1.50;;;11.50;55.90;;;;;;5134293;27;20021;-80
2024/04/21 10:21:22;;;;;;;;;;;12.30;41.30;;;;;;5171772;27;20009;-79
2024/04/21 10:24:15;;;;;;;7.15;1.38;;;12.70;22.70;;;;;;5170587;27;19938;-78
2024/04/21 10:28:01;;;;;;;5.90;1.63;;;13.10;12.80;;;;;;5142967;27;20463;-84
2024/04/21 10:31:14;;;;;;;6.13;2.15;;;11.70;1.00;;;;;;5125865;27;20009;-82
2024/04/21 10:34:09;;;;;;;9.77;2.10;;;9.80;1.00;;;;;;5119184;27;20074;-83
2024/04/21 10:37:05;;;;;;;6.30;2.45;;;9.20;1.00;;;;;;5135426;27;20395;-82
2024/04/21 10:40:06;;;;;;;9.77;2.50;;;8.30;1.00;;;;;;5125548;27;20006;-83
2024/04/21 10:43:20;;;;;;;10.27;3.25;;;7.30;18.50;;;;;;5134543;27;20023;-79
2024/04/21 10:46:30;;;;;;;11.10;3.55;;;7.20;51.80;;;;;;5134376;27;20566;-83
2024/04/21 10:49:28;;;;;;;8.63;3.15;;;6.70;64.70;;;;;;5125910;27;20012;-82
2024/04/21 10:52:57;;;;;;;10.15;2.88;;;6.40;94.50;;;;;;5128211;27;20009;-84
2024/04/21 10:55:55;;;;;;;7.28;2.42;;;6.40;99.90;;;;;;5121524;27;20022;-83
2024/04/21 10:59:08;;;;;;;4.82;2.42;;;6.80;99.90;;;;;;5121058;27;20009;-82
2024/04/21 11:06:11;;;;;;;4.75;1.70;;;8.50;99.90;;;;;;5117139;27;20419;-86
2024/04/21 11:10:09;;;;;;;;;;;;;;;;;;;;;
2024/04/21 11:13:21;;;;;;;5.00;1.75;;;10.70;22.00;;;;;;5131716;27;20025;-84
2024/04/21 11:16:29;;;;;;;5.90;1.80;;;11.60;8.10;;;;;;5132116;27;20017;-82
2024/04/21 11:19:30;;;;;;;7.47;1.77;;;12.00;1.00;;;;;;5243442;22;20020;-85
2024/04/21 11:22:35;;;;;;;6.88;1.73;;;12.70;1.00;;;;;;5118887;27;20398;-84
2024/04/21 11:25:50;;;;;;;12.00;2.17;;;13.00;1.00;;;;;;5118306;27;20029;-84
2024/04/21 11:29:18;;;;;;;7.25;2.00;;;12.20;1.00;;;;;;5104672;27;20013;-80
2024/04/21 11:32:52;;;;;;;4.50;1.80;;;11.00;1.00;;;;;;5118169;27;20014;-85
2024/04/21 11:35:53;;;;;;;8.95;2.30;;;10.60;1.00;;;;;;5126736;27;20009;-84
2024/04/21 11:38:53;;;;;;;6.90;1.85;;;11.10;1.00;;;;;;5128608;27;20013;-85
2024/04/21 11:41:46;;;;;;;8.18;2.03;;;11.30;1.00;;;;;;5134434;27;20065;-82
2024/04/21 11:44:42;;;;;;;4.55;1.80;;;11.00;1.00;;;;;;5113651;27;20422;-85
2024/04/21 11:50:26;;;;;;;7.18;2.17;;;8.80;1.00;;;;;;5353262;22;20605;-85
2024/04/21 11:57:18;;;;;;;8.32;2.50;;;7.50;1.00;;;;;;5050048;28;20017;-81
2024/04/21 12:00:33;;;;;;;8.18;2.30;;;7.10;1.40;;;;;;5046558;28;20012;-83
2024/04/21 12:03:58;;;;;;;;;;;;;;;;;;;;;
2024/04/21 12:07:24;;;;;;;6.97;1.88;;;9.00;38.50;;;;;;5037451;28;20967;-85
2024/04/21 12:10:47;;;;;;;7.78;1.85;;;9.50;1.00;;;;;;5279053;22;20011;-85
2024/04/21 12:22:08;;;;;;;4.90;1.92;;;11.00;1.00;;;;;;5032309;28;20006;-84
2024/04/21 12:25:26;;;;;;;6.60;1.67;;;12.20;1.00;;;;;;5043746;28;20082;-84
2024/04/21 12:28:27;;;;;;;3.35;1.30;;;12.20;1.00;;;;;;5042077;28;20018;-85
2024/04/21 12:35:14;;;;;;;2.53;1.25;;;12.10;1.00;;;;;;5050225;28;20011;-83
2024/04/21 12:38:18;;;;;;;3.85;1.58;;;12.60;1.00;;;;;;5087999;27;20021;-84
2024/04/21 12:41:13;;;;;;;2.50;1.52;;;12.40;1.00;;;;;;5128369;27;20475;-85
2024/04/21 12:44:23;;;;;;;5.28;1.85;;;11.80;1.00;;;;;;5125243;27;20021;-84
2024/04/21 12:47:38;;;;;;;3.75;1.30;;;11.50;1.00;;;;;;5119141;27;20023;-85
2024/04/21 12:50:42;;;;;;;4.30;1.58;;;12.30;1.00;;;;;;5130277;27;20017;-78
2024/04/21 12:53:58;;;;;;;4.07;1.30;;;11.80;1.00;;;;;;5137672;27;20052;-82
2024/04/21 12:57:11;;;;;;;4.85;1.73;;;11.20;1.00;;;;;;5138328;27;20033;-81
2024/04/21 13:00:29;;;;;;;6.97;1.92;;;10.70;1.00;;;;;;5135549;27;20058;-80
2024/04/21 13:04:03;;;;;;;5.13;1.65;;;10.20;1.00;;;;;;5124667;27;20063;-84
2024/04/21 13:07:14;;;;;;;5.63;1.63;;;10.00;1.00;;;;;;5131961;27;20026;-81
2024/04/21 13:10:12;;;;;;;3.17;1.45;;;9.60;1.00;;;;;;5130676;27;20084;-82
2024/04/21 13:13:09;;;;;;;3.15;1.35;;;9.70;1.00;;;;;;5120173;27;20006;-81
2024/04/21 13:16:05;;;;;;;6.45;1.65;;;9.80;1.00;;;;;;5125760;27;20020;-81
2024/04/21 13:19:45;;;;;;;3.28;1.42;;;10.20;1.00;;;;;;5140500;27;20020;-82
2024/04/21 13:22:48;;;;;;;4.95;1.52;;;11.40;1.00;;;;;;5135166;27;20014;-85
2024/04/21 13:25:43;;;;;;;3.78;1.40;;;12.10;1.00;;;;;;5119769;27;20009;-85
2024/04/21 13:28:43;;;;;;;3.95;1.45;;;11.30;1.00;;;;;;5121033;27;20015;-83
2024/04/21 13:31:44;;;;;;;4.10;1.52;;;10.30;1.00;;;;;;5122101;27;20054;-87
2024/04/21 13:34:47;;;;;;;7.82;1.85;;;9.70;1.00;;;;;;5123478;27;20159;-83
2024/04/21 13:37:56;;;;;;;;;;;9.10;1.00;;;;;;5116939;27;20042;-84
2024/04/21 13:41:00;;;;;;;4.85;1.90;;;8.80;1.00;;;;;;5118303;27;20235;-84
2024/04/21 13:43:56;;;;;;;4.82;1.45;;;8.90;1.00;;;;;;5129618;27;20017;-83
2024/04/21 13:47:06;;;;;;;5.00;1.67;;;10.80;1.00;;;;;;5121165;27;20023;-82
2024/04/21 13:50:14;;;;;;;5.00;1.42;;;13.60;1.00;;;;;;5126131;27;20014;-85
2024/04/21 13:53:06;;;;;;;4.32;1.17;;;15.40;1.00;;;;;;5130912;27;20013;-82
2024/04/21 13:56:10;;;;;;;4.32;1.17;;;15.80;1.00;;;;;;5127095;27;20010;-85
2024/04/21 13:59:25;;;;;;;4.03;1.50;;;16.30;1.00;;;;;;5119793;27;20006;-86
2024/04/21 14:02:23;;;;;;;3.50;1.70;;;16.20;1.00;;;;;;5133944;27;20753;-85
2024/04/21 14:05:20;;;;;;;2.70;1.30;;;16.00;1.00;;;;;;5124251;27;20010;-82
2024/04/21 14:08:28;;;;;;;5.18;1.58;;;16.20;1.00;;;;;;5134934;27;20008;-81
2024/04/21 14:11:28;;;;;;;5.32;1.42;;;14.60;1.00;;;;;;5165928;27;20414;-84
2024/04/21 14:14:30;;;;;;;4.28;1.55;;;13.90;1.00;;;;;;5125797;27;20013;-83
2024/04/21 14:17:40;;;;;;;6.18;2.53;;;14.60;1.00;;;;;;5137982;27;20021;-85
2024/04/21 14:21:15;;;;;;;4.25;2.00;;;15.30;1.00;;;;;;5119254;27;20014;-83
2024/04/21 14:24:52;;;;;;;5.32;1.48;;;15.60;1.00;;;;;;5116419;27;20013;-83
2024/04/21 14:28:38;;;;;;;7.43;2.05;;;14.50;1.00;;;;;;5133266;27;20117;-84
2024/04/21 14:31:40;;;;;;;4.20;1.60;;;12.40;1.00;;;;;;5126950;27;20066;-85
2024/04/21 14:38:59;;;;;;;3.28;1.65;;;11.20;1.00;;;;;;5173439;27;20008;-82
2024/04/21 14:42:33;;;;;;;2.92;1.20;;;10.70;1.00;;;;;;5179958;27;20022;-84
2024/04/21 14:45:55;;;;;;;3.20;1.73;;;10.10;1.00;;;;;;5170933;27;20023;-82
2024/04/21 14:49:55;;;;;;;;;;;;;;;;;;;;;
2024/04/21 14:53:13;;;;;;;5.20;1.42;;;10.00;1.00;;;;;;5123104;27;20001;-82
2024/04/21 14:56:22;;;;;;;7.18;5.03;;;9.70;1.00;;;;;;5128413;27;20093;-82
2024/04/21 14:59:31;;;;;;;2.75;1.90;;;9.20;1.00;;;;;;5117664;27;20020;-84
2024/04/21 15:02:30;;;;;;;4.65;1.67;;;8.60;1.00;;;;;;5153258;27;20070;-83
2024/04/21 15:05:47;;;;;;;2.85;1.50;;;8.20;1.00;;;;;;5123938;27;20009;-83
2024/04/21 15:09:03;;;;;;;3.35;1.70;;;8.10;1.00;;;;;;5117843;27;20025;-83
2024/04/21 15:11:52;;;;;;;3.90;1.30;;;7.90;1.00;;;;;;5136069;27;20381;-84
2024/04/21 15:15:14;;;;;;;;;;;;;;;;;;;;;
2024/04/21 15:18:09;;;;;;;2.85;1.58;;;7.70;1.00;;;;;;5128557;27;20014;-83
2024/04/21 15:20:59;;;;;;;;;;;7.60;1.00;;;;;;5129703;27;20017;-83
2024/04/21 15:23:54;;;;;;;2.83;1.45;;;7.50;1.00;;;;;;5150764;27;19937;-83
2024/04/21 15:26:51;;;;;;;2.45;1.45;;;7.40;1.00;;;;;;5132281;27;20009;-81
2024/04/21 15:29:45;;;;;;;3.17;1.30;;;7.30;1.00;;;;;;5126389;27;20009;-84
2024/04/21 15:33:03;;;;;;;5.32;1.30;;;7.20;1.00;;;;;;5126224;27;20010;-85
2024/04/21 15:35:59;;;;;;;1.88;0.90;;;7.00;1.00;;;;;;5150737;27;20008;-82
2024/04/21 15:39:10;;;;;;;2.60;1.00;;;6.80;1.00;;;;;;5135586;27;20093;-83
2024/04/21 15:42:10;;;;;;;1.00;1.00;;;6.80;1.00;;;;;;5128651;27;20014;-82
2024/04/21 15:45:18;;;;;;;2.13;1.38;;;6.70;1.00;;;;;;5144402;27;20017;-83
2024/04/21 15:48:13;;;;;;;1.65;1.20;;;6.70;1.00;;;;;;5112009;27;20000;-82
2024/04/21 15:51:11;;;;;;;2.88;1.58;;;6.70;1.00;;;;;;5141198;27;20028;-83
2024/04/21 15:54:03;;;;;;;1.30;1.20;;;6.70;13.00;;;;;;5128573;27;20009;-85
2024/04/21 15:57:10;;;;;;;1.48;1.38;;;6.70;26.00;;;;;;5139168;27;20423;-83
2024/04/21 16:00:11;;;;;;;1.40;1.30;;;6.50;39.10;;;;;;5116636;27;20348;-84
2024/04/21 16:03:26;;;;;;;2.53;1.33;;;6.60;61.60;;;;;;5122735;27;20038;-82
2024/04/21 16:11:10;;;;;;;;;;;;;;;;;;;;;
2024/04/21 16:14:21;;;;;;;1.88;1.40;;;6.80;53.40;;;;;;5125444;27;20011;-82
2024/04/21 16:17:46;;;;;;;1.90;1.40;;;6.40;68.40;;;;;;5101976;27;20025;-82
2024/04/21 16:20:48;;;;;;;2.70;1.40;;;6.00;91.70;;;;;;5128929;27;20028;-83
2024/04/21 16:23:45;;;;;;;1.42;1.13;;;5.80;99.90;;;;;;5133899;27;20645;-83
2024/04/21 16:27:26;;;;;;;1.35;1.20;;;6.00;99.90;;;;;;5125869;27;20016;-82
2024/04/21 16:30:13;;;;;;;5.65;1.30;;;6.10;99.90;;;;;;5117926;27;20012;-81
2024/04/21 16:33:16;;;;;;;1.40;1.33;;;5.90;99.90;;;;;;5163812;27;20024;-84
2024/04/21 16:36:18;;;;;;;1.40;1.30;;;5.80;99.90;;;;;;5115163;27;20343;-84
2024/04/21 16:39:12;;;;;;;1.67;1.00;;;5.60;99.90;;;;;;5131092;27;20029;-83
2024/04/21 16:42:17;;;;;;;1.88;1.15;;;5.60;99.90;;;;;;5127043;27;20026;-85
2024/04/21 16:45:47;;;;;;;1.33;1.00;;;5.70;99.90;;;;;;5127088;27;20045;-82
2024/04/21 16:48:55;;;;;;;;;;;;;;;;;;;;;
2024/04/21 16:51:59;;;;;;;1.52;1.42;;;5.70;99.90;;;;;;5104564;27;20096;-84